Historyczne dane pomiarowe

Dodano dane terminowe – wersja testowa.

Dane z okresu 1951-2019

Wersja bazy: 1.34 [2019-03-16, lista zmian], aktualizacja planowana na 2019-04-15

Dane meteo z obszaru Polski uzyskane na podstawie danych udostępnionych przez Instytut Meteorologii i Gospodarki Wodnej – Państwowy Instytut Badawczy.

 

Wybierz Datę:    

       

TemperaturaWilgotnośćWiatrCiśnienieOpadyŚniegCzas trwania zjawisk
 Stacja t tx tn tng RH VA  wxwx mslp ppp RRR   cm mm wxwxwxwxwxwxwx
1994-08-14 15.7 19.5 12.1 11.3 70.0- 5.3 1.3---- 0.7------------
1994-08-13 17.5 22.0 14.3 13.6 84.0- 6.3 2.3---- 5.2------------
1994-08-12 16.9 20.1 15.6 14.1 89.8- 8.0 0.7---- 1.3------------
1994-08-11 18.6 21.5 14.8 13.1 82.8- 6.3 2.0---- 13.2------------
1994-08-10 19.7 25.7 16.2 15.3 77.8- 6.7 2.7---- 0.0------------
1994-08-09 20.5 27.9 15.8 15.1 82.3- 7.3 1.7---- 5.5------------
1994-08-08 21.3 30.5 17.1 15.3 78.0- 6.7 0.3---- 7.8------------
1994-08-07 22.2 30.7 12.4 10.8 67.0- 4.0 1.3---- 0.0------------
1994-08-06 21.8 29.5 13.1 12.3 60.3- 0.0 1.3---- 0.0------------
1994-08-05 21.9 29.3 15.1 13.9 65.3- 0.7 0.7---- 0.0------------
1994-08-04 20.7 26.7 17.1 16.7 80.5- 6.0 2.3---- 3.0------------
1994-08-03 23.0 32.3 17.5 16.6 71.5- 5.3 3.0---- 27.1------------
1994-08-02 24.0 33.9 12.9 10.9 57.5- 2.3 1.0---- 0.0------------
1994-08-01 24.9 33.3 15.7 13.3 63.5- 2.7 1.0---- 0.0------------
1994-07-31 24.9 34.0 14.1 13.3 66.8- 2.0 0.7---- 0.3------------
1994-07-30 24.3 33.5 13.8 12.3 59.8- 0.0 0.0---- 0.0------------
1994-07-29 24.1 33.5 12.1 10.7 58.3- 1.3 0.7---- 0.0------------
1994-07-28 22.7 33.0 13.1 11.5 55.8- 0.7 0.7---- 0.0------------
1994-07-27 22.8 33.0 13.1 11.7 60.0- 2.7 1.3---- 0.0------------
1994-07-26 23.5 32.0 12.6 10.9 57.3- 1.7 0.7---- 0.0------------
1994-07-25 22.4 31.0 11.7 9.8 56.5- 1.3 1.3---- 0.0------------
1994-07-24 22.0 29.2 11.7 10.3 60.5- 2.7 1.0---- 0.0------------
1994-07-23 21.0 28.5 10.7 9.4 59.0- 1.0 1.0---- 0.0------------
1994-07-22 19.6 27.0 9.6 8.4 59.8- 0.3 0.7---- 0.0------------
1994-07-21 19.3 25.8 9.2 7.8 61.0- 0.3 1.3---- 0.0------------
1994-07-20 18.8 23.6 11.1 9.8 56.8- 2.3 1.7---- 0.0------------
1994-07-19 20.0 25.1 14.3 14.3 69.0- 2.7 1.7---- 0.0------------
1994-07-18 19.9 25.0 17.4 15.5 81.3- 5.3 1.0---- 2.0------------
1994-07-17 23.3 31.7 14.1 12.3 66.8- 2.0 1.7---- 19.0------------
1994-07-16 22.3 32.0 10.6 8.4 54.5- 0.7 0.7---- 0.0------------
1994-07-15 22.3 28.5 12.7 11.3 60.5- 1.3 2.3---- 0.0------------
1994-07-14 21.9 29.0 12.6 10.7 69.5- 7.0 1.7---- 2.1------------
1994-07-13 22.2 29.0 10.8 8.4 54.3- 2.7 2.3---- 0.2------------
1994-07-12 20.7 28.5 13.6 11.7 61.0- 2.0 3.0---- 0.0------------
1994-07-11 17.1 19.8 12.7 9.4 82.5- 7.7 1.7---- 0.0------------
1994-07-10 15.9 23.1 9.7 9.7 74.8- 6.0 1.7---- 1.2------------
1994-07-09 15.3 20.1 10.5 9.0 73.3- 6.0 2.3---- 0.6------------
1994-07-08 18.9 23.3 16.1 15.4 67.8- 6.3 2.0---- 0.0------------
1994-07-07 19.9 27.3 10.2 8.7 62.0- 6.0 1.7---- 0.7------------
1994-07-06 18.7 26.0 9.4 8.1 56.8- 2.0 1.7---- 0.0------------
1994-07-05 19.3 27.9 8.2 6.8 60.8- 3.0 1.7---- 0.0------------
1994-07-04 19.5 27.9 7.3 5.1 59.5- 0.7 1.3---- 0.0------------
1994-07-03 18.6 26.7 6.4 5.0 58.3- 1.3 0.7---- 0.0------------
1994-07-02 17.6 25.5 6.4 5.4 60.8- 1.3 1.7---- 0.0------------
1994-07-01 19.5 24.5 16.4 15.9 61.5- 1.3 2.3---- 0.0------------
1994-06-30 23.6 32.4 14.3 12.7 71.0- 4.7 1.7---- 0.0------------
1994-06-29 23.7 32.5 13.1 10.7 63.5- 0.0 0.3---- 0.0------------
1994-06-28 22.9 29.8 16.6 13.9 66.5- 0.7 1.0---- 0.0------------
1994-06-27 23.9 31.9 13.4 11.3 64.5- 0.7 0.7---- 0.0------------
1994-06-26 19.9 28.5 8.7 5.4 59.8- 0.7 2.0---- 0.0------------
1994-06-25 15.0 22.5 3.2 1.1 61.5- 0.3 2.3---- 0.0------------
1994-06-24 14.6 20.5 8.8 8.1 54.0- 0.7 5.3---- 0.0------------
1994-06-23 18.2 22.7 16.6 14.8 56.0- 2.0 6.3---- 0.0------------
1994-06-22 17.4 25.9 5.3 3.8 66.3- 3.0 2.0---- 0.5------------
1994-06-21 14.8 21.5 5.1 2.1 65.8- 1.7 1.0---- 0.0------------
1994-06-20 17.6 22.5 12.6 8.2 68.3- 4.3 3.0---- 0.0------------
1994-06-19 16.9 22.5 11.1 10.3 73.0- 7.3 2.7---- 0.1------------
1994-06-18 12.2 18.5 4.8 1.0 67.3- 3.3 3.7---- 1.6------------
1994-06-17 11.0 16.0 9.4 7.5 73.5- 5.7 4.3---- 0.9------------
1994-06-16 12.9 18.6 3.8 1.5 64.8- 6.3 3.7---- 2.3------------
213.9 ms

 

Źródłem pochodzenia danych jest Instytut Meteorologii i Gospodarki Wodnej – Państwowy Instytut Badawczy. Dane Instytutu Meteorologii i Gospodarki Wodnej – Państwowego Instytutu Badawczego zostały przetworzone.

Dane źródłowe można odnaleźć na stronie https://dane.imgw.pl